sensor_id;sensor_type;location;lat;lon;timestamp;pressure;altitude;pressure_sealevel;temperature;humidity
10940;BME280;5522;42.696;23.494;2023-10-09T00:01:39;53791.50;;;-139.68;91.71
10940;BME280;5522;42.696;23.494;2023-10-09T00:04:09;53833.72;;;-139.68;91.92
10940;BME280;5522;42.696;23.494;2023-10-09T00:06:37;53799.53;;;-139.68;92.25
10940;BME280;5522;42.696;23.494;2023-10-09T00:09:04;53799.53;;;-139.68;92.64
10940;BME280;5522;42.696;23.494;2023-10-09T00:11:56;53775.41;;;-139.68;93.19
10940;BME280;5522;42.696;23.494;2023-10-09T00:14:24;53799.53;;;-139.68;93.64
10940;BME280;5522;42.696;23.494;2023-10-09T00:16:51;53823.66;;;-139.68;93.72
10940;BME280;5522;42.696;23.494;2023-10-09T00:19:26;53815.63;;;-139.68;93.58
10940;BME280;5522;42.696;23.494;2023-10-09T00:21:56;53831.69;;;-139.68;93.35
10940;BME280;5522;42.696;23.494;2023-10-09T00:24:26;53829.69;;;-139.68;93.42
10940;BME280;5522;42.696;23.494;2023-10-09T00:26:56;53817.63;;;-139.68;93.08
10940;BME280;5522;42.696;23.494;2023-10-09T00:29:37;53839.75;;;-139.68;92.51
10940;BME280;5522;42.696;23.494;2023-10-09T00:32:09;53827.69;;;-139.68;92.17
10940;BME280;5522;42.696;23.494;2023-10-09T00:34:41;53809.59;;;-139.68;91.81
10940;BME280;5522;42.696;23.494;2023-10-09T00:37:09;53799.53;;;-139.68;91.88
10940;BME280;5522;42.696;23.494;2023-10-09T00:39:42;53815.63;;;-139.68;91.62
10940;BME280;5522;42.696;23.494;2023-10-09T00:42:10;53823.66;;;-139.68;91.90
10940;BME280;5522;42.696;23.494;2023-10-09T00:44:41;53819.63;;;-139.68;92.05
10940;BME280;5522;42.696;23.494;2023-10-09T00:47:09;53815.63;;;-139.68;92.15
10940;BME280;5522;42.696;23.494;2023-10-09T00:49:49;53785.47;;;-139.68;91.72
10940;BME280;5522;42.696;23.494;2023-10-09T00:52:20;53803.56;;;-139.68;92.02
10940;BME280;5522;42.696;23.494;2023-10-09T00:54:57;53803.56;;;-139.68;92.08
10940;BME280;5522;42.696;23.494;2023-10-09T00:57:29;53795.50;;;-139.68;91.68
10940;BME280;5522;42.696;23.494;2023-10-09T00:59:59;53777.41;;;-139.68;91.62
10940;BME280;5522;42.696;23.494;2023-10-09T01:07:48;53837.72;;;-139.68;92.31
10940;BME280;5522;42.696;23.494;2023-10-09T01:10:23;53763.34;;;-139.68;92.85
10940;BME280;5522;42.696;23.494;2023-10-09T01:13:00;53813.59;;;-139.68;92.80
10940;BME280;5522;42.696;23.494;2023-10-09T01:15:28;53811.59;;;-139.68;92.66
10940;BME280;5522;42.696;23.494;2023-10-09T01:18:09;53795.50;;;-139.68;93.17
10940;BME280;5522;42.696;23.494;2023-10-09T01:20:37;53815.63;;;-139.68;93.61
10940;BME280;5522;42.696;23.494;2023-10-09T01:23:10;53815.63;;;-139.68;93.31
10940;BME280;5522;42.696;23.494;2023-10-09T01:25:37;53825.66;;;-139.68;93.22
10940;BME280;5522;42.696;23.494;2023-10-09T01:28:15;53773.41;;;-139.68;92.97
10940;BME280;5522;42.696;23.494;2023-10-09T01:30:43;53819.63;;;-139.68;92.77
10940;BME280;5522;42.696;23.494;2023-10-09T01:33:11;53823.66;;;-139.68;92.85
10940;BME280;5522;42.696;23.494;2023-10-09T01:35:49;53823.66;;;-139.68;93.47
10940;BME280;5522;42.696;23.494;2023-10-09T01:38:23;53799.53;;;-139.68;93.62
10940;BME280;5522;42.696;23.494;2023-10-09T01:41:07;53815.63;;;-139.68;92.73
10940;BME280;5522;42.696;23.494;2023-10-09T01:43:34;53811.59;;;-139.68;93.23
10940;BME280;5522;42.696;23.494;2023-10-09T01:46:04;53827.69;;;-139.68;92.97
10940;BME280;5522;42.696;23.494;2023-10-09T01:48:31;53855.81;;;-139.68;93.11
10940;BME280;5522;42.696;23.494;2023-10-09T01:51:03;53835.72;;;-139.68;93.18
10940;BME280;5522;42.696;23.494;2023-10-09T01:53:35;53823.66;;;-139.68;92.63
10940;BME280;5522;42.696;23.494;2023-10-09T01:56:13;53827.69;;;-139.68;93.17
10940;BME280;5522;42.696;23.494;2023-10-09T01:58:44;53815.63;;;-139.68;92.82
10940;BME280;5522;42.696;23.494;2023-10-09T02:01:13;53867.88;;;-139.68;93.18
10940;BME280;5522;42.696;23.494;2023-10-09T02:03:40;53809.59;;;-139.68;93.32
10940;BME280;5522;42.696;23.494;2023-10-09T02:06:09;53815.63;;;-139.68;93.44
10940;BME280;5522;42.696;23.494;2023-10-09T02:08:54;53825.66;;;-139.68;93.51
10940;BME280;5522;42.696;23.494;2023-10-09T02:11:22;53829.69;;;-139.68;93.40
10940;BME280;5522;42.696;23.494;2023-10-09T02:14:03;53815.63;;;-139.68;93.60
10940;BME280;5522;42.696;23.494;2023-10-09T02:16:42;53815.63;;;-139.68;93.76
10940;BME280;5522;42.696;23.494;2023-10-09T02:19:09;53779.44;;;-139.68;93.46
10940;BME280;5522;42.696;23.494;2023-10-09T02:21:56;53833.72;;;-139.68;93.74
10940;BME280;5522;42.696;23.494;2023-10-09T02:24:27;53799.53;;;-139.68;94.58
10940;BME280;5522;42.696;23.494;2023-10-09T02:27:15;53795.50;;;-139.68;94.15
10940;BME280;5522;42.696;23.494;2023-10-09T02:30:04;53803.56;;;-139.68;93.67
10940;BME280;5522;42.696;23.494;2023-10-09T02:32:43;53789.47;;;-139.68;94.17
10940;BME280;5522;42.696;23.494;2023-10-09T02:35:14;53823.66;;;-139.68;93.70
10940;BME280;5522;42.696;23.494;2023-10-09T02:38:04;53787.47;;;-139.68;93.25
10940;BME280;5522;42.696;23.494;2023-10-09T02:40:37;53759.31;;;-139.68;93.73
10940;BME280;5522;42.696;23.494;2023-10-09T02:43:26;53803.56;;;-139.68;94.55
10940;BME280;5522;42.696;23.494;2023-10-09T02:45:53;53791.50;;;-139.68;95.16
10940;BME280;5522;42.696;23.494;2023-10-09T02:48:20;53795.50;;;-139.68;96.16
10940;BME280;5522;42.696;23.494;2023-10-09T02:50:51;53813.59;;;-139.68;97.87
10940;BME280;5522;42.696;23.494;2023-10-09T02:53:21;53795.50;;;-139.68;99.36
10940;BME280;5522;42.696;23.494;2023-10-09T02:55:56;53767.38;;;-139.68;100.00
10940;BME280;5522;42.696;23.494;2023-10-09T02:58:37;53811.59;;;-139.68;100.00
10940;BME280;5522;42.696;23.494;2023-10-09T03:01:09;53747.25;;;-139.68;100.00
10940;BME280;5522;42.696;23.494;2023-10-09T03:03:36;53783.44;;;-139.68;100.00
10940;BME280;5522;42.696;23.494;2023-10-09T03:06:04;53797.53;;;-139.68;100.00
10940;BME280;5522;42.696;23.494;2023-10-09T03:08:39;53783.44;;;-139.68;100.00
10940;BME280;5522;42.696;23.494;2023-10-09T03:11:10;53791.50;;;-139.68;100.00
10940;BME280;5522;42.696;23.494;2023-10-09T03:13:41;53779.44;;;-139.68;100.00
10940;BME280;5522;42.696;23.494;2023-10-09T03:16:10;53811.59;;;-139.68;100.00
10940;BME280;5522;42.696;23.494;2023-10-09T03:18:49;53801.53;;;-139.68;100.00
10940;BME280;5522;42.696;23.494;2023-10-09T03:21:16;53751.28;;;-139.68;100.00
10940;BME280;5522;42.696;23.494;2023-10-09T03:23:44;53767.38;;;-139.68;100.00
10940;BME280;5522;42.696;23.494;2023-10-09T03:26:19;53787.47;;;-139.68;100.00
10940;BME280;5522;42.696;23.494;2023-10-09T03:28:46;53739.22;;;-139.68;100.00
10940;BME280;5522;42.696;23.494;2023-10-09T03:31:14;53775.41;;;-139.68;100.00
10940;BME280;5522;42.696;23.494;2023-10-09T03:33:41;53735.19;;;-139.68;100.00
10940;BME280;5522;42.696;23.494;2023-10-09T03:36:08;53751.28;;;-139.68;100.00
10940;BME280;5522;42.696;23.494;2023-10-09T03:38:36;53755.31;;;-139.68;100.00
10940;BME280;5522;42.696;23.494;2023-10-09T03:41:04;53731.19;;;-139.68;100.00
10940;BME280;5522;42.696;23.494;2023-10-09T03:43:34;53711.09;;;-139.68;100.00
10940;BME280;5522;42.696;23.494;2023-10-09T03:46:04;53759.31;;;-139.68;100.00
10940;BME280;5522;42.696;23.494;2023-10-09T03:48:40;53731.19;;;-139.68;100.00
10940;BME280;5522;42.696;23.494;2023-10-09T03:51:09;53749.28;;;-139.68;100.00
10940;BME280;5522;42.696;23.494;2023-10-09T03:53:38;53753.28;;;-139.68;100.00
10940;BME280;5522;42.696;23.494;2023-10-09T03:56:06;53775.41;;;-139.68;100.00
10940;BME280;5522;42.696;23.494;2023-10-09T03:58:39;53763.34;;;-139.68;100.00
10940;BME280;5522;42.696;23.494;2023-10-09T04:01:08;53749.28;;;-139.68;100.00
10940;BME280;5522;42.696;23.494;2023-10-09T04:03:37;53735.19;;;-139.68;100.00
10940;BME280;5522;42.696;23.494;2023-10-09T04:06:04;53745.25;;;-139.68;100.00
10940;BME280;5522;42.696;23.494;2023-10-09T04:08:35;53739.22;;;-139.68;100.00
10940;BME280;5522;42.696;23.494;2023-10-09T04:11:05;53741.22;;;-139.68;100.00
10940;BME280;5522;42.696;23.494;2023-10-09T04:13:43;53759.31;;;-139.68;100.00
10940;BME280;5522;42.696;23.494;2023-10-09T04:16:12;53773.41;;;-139.68;100.00
10940;BME280;5522;42.696;23.494;2023-10-09T04:18:52;53751.28;;;-139.68;100.00
10940;BME280;5522;42.696;23.494;2023-10-09T04:21:21;53751.28;;;-139.68;100.00
10940;BME280;5522;42.696;23.494;2023-10-09T04:24:00;53743.25;;;-139.68;100.00
10940;BME280;5522;42.696;23.494;2023-10-09T04:26:48;53793.50;;;-139.68;100.00
10940;BME280;5522;42.696;23.494;2023-10-09T04:29:23;53749.28;;;-139.68;100.00
10940;BME280;5522;42.696;23.494;2023-10-09T04:31:53;53815.63;;;-139.68;100.00
10940;BME280;5522;42.696;23.494;2023-10-09T04:34:22;53791.50;;;-139.68;100.00
10940;BME280;5522;42.696;23.494;2023-10-09T04:36:49;53745.25;;;-139.68;100.00
10940;BME280;5522;42.696;23.494;2023-10-09T04:39:17;53779.44;;;-139.68;100.00
10940;BME280;5522;42.696;23.494;2023-10-09T04:41:58;53785.47;;;-139.68;100.00
10940;BME280;5522;42.696;23.494;2023-10-09T04:44:40;53745.25;;;-139.68;100.00
10940;BME280;5522;42.696;23.494;2023-10-09T04:47:25;53797.53;;;-139.68;100.00
10940;BME280;5522;42.696;23.494;2023-10-09T04:50:01;53751.28;;;-139.68;100.00
10940;BME280;5522;42.696;23.494;2023-10-09T04:52:32;53771.38;;;-139.68;100.00
10940;BME280;5522;42.696;23.494;2023-10-09T04:55:16;53771.38;;;-139.68;100.00
10940;BME280;5522;42.696;23.494;2023-10-09T04:57:46;53797.53;;;-139.68;99.21
10940;BME280;5522;42.696;23.494;2023-10-09T05:00:27;53745.25;;;-139.68;96.47
10940;BME280;5522;42.696;23.494;2023-10-09T05:03:17;53745.25;;;-139.68;95.30
10940;BME280;5522;42.696;23.494;2023-10-09T05:05:53;53775.41;;;-139.68;93.88
10940;BME280;5522;42.696;23.494;2023-10-09T05:08:45;53795.50;;;-139.68;92.00
10940;BME280;5522;42.696;23.494;2023-10-09T05:11:13;53793.50;;;-139.68;91.82
10940;BME280;5522;42.696;23.494;2023-10-09T05:13:41;53767.38;;;-139.68;91.53
10940;BME280;5522;42.696;23.494;2023-10-09T05:16:11;53779.44;;;-139.68;90.02
10940;BME280;5522;42.696;23.494;2023-10-09T05:18:44;53825.66;;;-139.68;83.84
10940;BME280;5522;42.696;23.494;2023-10-09T05:21:10;53755.31;;;-139.68;77.47
10940;BME280;5522;42.696;23.494;2023-10-09T05:23:51;53809.59;;;-139.68;73.12
10940;BME280;5522;42.696;23.494;2023-10-09T05:26:32;53739.22;;;-139.68;70.75
10940;BME280;5522;42.696;23.494;2023-10-09T05:29:17;53755.31;;;-139.68;68.08
10940;BME280;5522;42.696;23.494;2023-10-09T05:31:46;53739.22;;;-139.68;62.89
10940;BME280;5522;42.696;23.494;2023-10-09T05:34:23;53803.56;;;-139.68;58.66
10940;BME280;5522;42.696;23.494;2023-10-09T05:36:59;53807.56;;;-139.68;52.16
10940;BME280;5522;42.696;23.494;2023-10-09T05:39:43;53773.41;;;-139.68;47.40
10940;BME280;5522;42.696;23.494;2023-10-09T05:42:23;53815.63;;;-139.68;44.98
10940;BME280;5522;42.696;23.494;2023-10-09T05:44:54;53805.56;;;-139.68;42.36
10940;BME280;5522;42.696;23.494;2023-10-09T05:47:39;53783.44;;;-139.68;40.02
10940;BME280;5522;42.696;23.494;2023-10-09T05:50:18;53795.50;;;-139.68;38.36
10940;BME280;5522;42.696;23.494;2023-10-09T05:53:01;53821.66;;;-139.68;36.79
10940;BME280;5522;42.696;23.494;2023-10-09T05:55:33;53803.56;;;-139.68;36.13
10940;BME280;5522;42.696;23.494;2023-10-09T05:58:17;53815.63;;;-139.68;34.26
10940;BME280;5522;42.696;23.494;2023-10-09T06:01:01;53851.81;;;-139.68;33.02
10940;BME280;5522;42.696;23.494;2023-10-09T06:03:46;53799.53;;;-139.68;31.04
10940;BME280;5522;42.696;23.494;2023-10-09T06:06:21;53827.69;;;-139.68;30.51
10940;BME280;5522;42.696;23.494;2023-10-09T06:09:08;53827.69;;;-139.68;30.03
10940;BME280;5522;42.696;23.494;2023-10-09T06:11:53;53837.72;;;-139.68;29.73
10940;BME280;5522;42.696;23.494;2023-10-09T06:14:41;53827.69;;;-139.68;29.77
10940;BME280;5522;42.696;23.494;2023-10-09T06:17:24;53835.72;;;-139.68;29.14
10940;BME280;5522;42.696;23.494;2023-10-09T06:19:54;53829.69;;;-139.68;29.88
10940;BME280;5522;42.696;23.494;2023-10-09T06:22:24;53869.91;;;-139.68;28.90
10940;BME280;5522;42.696;23.494;2023-10-09T06:25:11;53831.69;;;-139.68;28.11
10940;BME280;5522;42.696;23.494;2023-10-09T06:27:38;53839.75;;;-139.68;27.46
10940;BME280;5522;42.696;23.494;2023-10-09T06:30:19;53807.56;;;-139.68;27.17
10940;BME280;5522;42.696;23.494;2023-10-09T06:32:52;53827.69;;;-139.68;27.57
10940;BME280;5522;42.696;23.494;2023-10-09T06:35:35;53843.75;;;-139.68;27.71
10940;BME280;5522;42.696;23.494;2023-10-09T06:38:02;53813.59;;;-139.68;27.36
10940;BME280;5522;42.696;23.494;2023-10-09T06:40:48;53815.63;;;-139.68;27.10
10940;BME280;5522;42.696;23.494;2023-10-09T06:43:33;53831.69;;;-139.68;27.08
10940;BME280;5522;42.696;23.494;2023-10-09T06:46:15;53827.69;;;-139.68;26.08
10940;BME280;5522;42.696;23.494;2023-10-09T06:48:59;53839.75;;;-139.68;26.11
10940;BME280;5522;42.696;23.494;2023-10-09T06:51:48;53845.78;;;-139.68;25.92
10940;BME280;5522;42.696;23.494;2023-10-09T06:54:21;53831.69;;;-139.68;26.19
10940;BME280;5522;42.696;23.494;2023-10-09T06:56:51;53863.88;;;-139.68;26.48
10940;BME280;5522;42.696;23.494;2023-10-09T06:59:37;53859.84;;;-139.68;26.85
10940;BME280;5522;42.696;23.494;2023-10-09T07:02:23;53863.88;;;-139.68;26.53
10940;BME280;5522;42.696;23.494;2023-10-09T07:04:51;53821.66;;;-139.68;26.71
10940;BME280;5522;42.696;23.494;2023-10-09T07:07:22;53835.72;;;-139.68;26.96
10940;BME280;5522;42.696;23.494;2023-10-09T07:09:51;53831.69;;;-139.68;26.87
10940;BME280;5522;42.696;23.494;2023-10-09T07:12:32;53809.59;;;-139.68;27.11
10940;BME280;5522;42.696;23.494;2023-10-09T07:15:00;53851.81;;;-139.68;26.73
10940;BME280;5522;42.696;23.494;2023-10-09T07:17:43;53807.56;;;-139.68;25.77
10940;BME280;5522;42.696;23.494;2023-10-09T07:20:16;53839.75;;;-139.68;26.16
10940;BME280;5522;42.696;23.494;2023-10-09T07:23:03;53851.81;;;-139.68;25.81
10940;BME280;5522;42.696;23.494;2023-10-09T07:25:43;53819.63;;;-139.68;25.89
10940;BME280;5522;42.696;23.494;2023-10-09T07:28:22;53855.81;;;-139.68;25.43
10940;BME280;5522;42.696;23.494;2023-10-09T07:31:08;53839.75;;;-139.68;24.60
10940;BME280;5522;42.696;23.494;2023-10-09T07:33:50;53847.78;;;-139.68;25.39
10940;BME280;5522;42.696;23.494;2023-10-09T07:36:22;53831.69;;;-139.68;25.11
10940;BME280;5522;42.696;23.494;2023-10-09T07:39:05;53873.91;;;-139.68;24.94
10940;BME280;5522;42.696;23.494;2023-10-09T07:41:41;53835.72;;;-139.68;25.45
10940;BME280;5522;42.696;23.494;2023-10-09T07:44:21;53811.59;;;-139.68;25.36
10940;BME280;5522;42.696;23.494;2023-10-09T07:47:02;53859.84;;;-139.68;25.95
10940;BME280;5522;42.696;23.494;2023-10-09T07:49:44;53863.88;;;-139.68;25.43
10940;BME280;5522;42.696;23.494;2023-10-09T07:52:17;53863.88;;;-139.68;24.70
10940;BME280;5522;42.696;23.494;2023-10-09T07:54:49;53827.69;;;-139.68;24.31
10940;BME280;5522;42.696;23.494;2023-10-09T07:57:29;53883.97;;;-139.68;24.86
10940;BME280;5522;42.696;23.494;2023-10-09T08:00:05;53875.94;;;-139.68;25.14
10940;BME280;5522;42.696;23.494;2023-10-09T08:02:59;53835.72;;;-139.68;24.72
10940;BME280;5522;42.696;23.494;2023-10-09T08:05:25;53859.84;;;-139.68;24.23
10940;BME280;5522;42.696;23.494;2023-10-09T08:07:59;53825.66;;;-139.68;24.70
10940;BME280;5522;42.696;23.494;2023-10-09T08:10:45;53821.66;;;-139.68;23.84
10940;BME280;5522;42.696;23.494;2023-10-09T08:13:29;53817.63;;;-139.68;23.72
10940;BME280;5522;42.696;23.494;2023-10-09T08:16:23;53843.75;;;-139.68;22.86
10940;BME280;5522;42.696;23.494;2023-10-09T08:19:02;53835.72;;;-139.68;23.24
10940;BME280;5522;42.696;23.494;2023-10-09T08:21:46;53843.75;;;-139.68;23.37
10940;BME280;5522;42.696;23.494;2023-10-09T08:24:33;53827.69;;;-139.68;23.67
10940;BME280;5522;42.696;23.494;2023-10-09T08:27:08;53811.59;;;-139.68;23.08
10940;BME280;5522;42.696;23.494;2023-10-09T08:29:53;53841.75;;;-139.68;22.96
10940;BME280;5522;42.696;23.494;2023-10-09T08:32:38;53843.75;;;-139.68;21.92
10940;BME280;5522;42.696;23.494;2023-10-09T08:35:05;53811.59;;;-139.68;21.01
10940;BME280;5522;42.696;23.494;2023-10-09T08:37:44;53849.78;;;-139.68;21.18
10940;BME280;5522;42.696;23.494;2023-10-09T08:40:16;53819.63;;;-139.68;21.17
10940;BME280;5522;42.696;23.494;2023-10-09T08:42:52;53833.72;;;-139.68;20.90
10940;BME280;5522;42.696;23.494;2023-10-09T08:45:21;53831.69;;;-139.68;20.98
10940;BME280;5522;42.696;23.494;2023-10-09T08:47:51;53849.78;;;-139.68;20.63
10940;BME280;5522;42.696;23.494;2023-10-09T08:50:19;53837.72;;;-139.68;20.27
10940;BME280;5522;42.696;23.494;2023-10-09T08:52:47;53827.69;;;-139.68;20.83
10940;BME280;5522;42.696;23.494;2023-10-09T08:55:15;53813.59;;;-139.68;20.52
10940;BME280;5522;42.696;23.494;2023-10-09T08:57:43;53837.72;;;-139.68;20.57
10940;BME280;5522;42.696;23.494;2023-10-09T09:00:18;53841.75;;;-139.68;20.08
10940;BME280;5522;42.696;23.494;2023-10-09T09:02:49;53835.72;;;-139.68;19.93
10940;BME280;5522;42.696;23.494;2023-10-09T09:05:19;53863.88;;;-139.68;20.10
10940;BME280;5522;42.696;23.494;2023-10-09T09:07:46;53869.91;;;-139.68;19.86
10940;BME280;5522;42.696;23.494;2023-10-09T09:10:13;53867.88;;;-139.68;19.57
10940;BME280;5522;42.696;23.494;2023-10-09T09:12:46;53843.75;;;-139.68;19.71
10940;BME280;5522;42.696;23.494;2023-10-09T09:15:14;53823.66;;;-139.68;19.24
10940;BME280;5522;42.696;23.494;2023-10-09T09:17:47;53835.72;;;-139.68;20.20
10940;BME280;5522;42.696;23.494;2023-10-09T09:20:22;53863.88;;;-139.68;20.74
10940;BME280;5522;42.696;23.494;2023-10-09T09:22:57;53839.75;;;-139.68;21.01
10940;BME280;5522;42.696;23.494;2023-10-09T09:25:24;53819.63;;;-139.68;20.36
10940;BME280;5522;42.696;23.494;2023-10-09T09:27:56;53835.72;;;-139.68;19.72
10940;BME280;5522;42.696;23.494;2023-10-09T09:30:35;53863.88;;;-139.68;20.68
10940;BME280;5522;42.696;23.494;2023-10-09T09:33:18;53859.84;;;-139.68;20.35
10940;BME280;5522;42.696;23.494;2023-10-09T09:36:02;53819.63;;;-139.68;19.71
10940;BME280;5522;42.696;23.494;2023-10-09T09:38:31;53815.63;;;-139.68;19.96
10940;BME280;5522;42.696;23.494;2023-10-09T09:41:08;53821.66;;;-139.68;19.79
10940;BME280;5522;42.696;23.494;2023-10-09T09:43:36;53847.78;;;-139.68;19.74
10940;BME280;5522;42.696;23.494;2023-10-09T09:46:06;53805.56;;;-139.68;20.35
10940;BME280;5522;42.696;23.494;2023-10-09T09:48:39;53855.81;;;-139.68;20.88
10940;BME280;5522;42.696;23.494;2023-10-09T09:51:12;53819.63;;;-139.68;20.71
10940;BME280;5522;42.696;23.494;2023-10-09T09:53:42;53875.94;;;-139.68;20.88
10940;BME280;5522;42.696;23.494;2023-10-09T09:56:14;53847.78;;;-139.68;20.13
10940;BME280;5522;42.696;23.494;2023-10-09T09:58:44;53839.75;;;-139.68;20.88
10940;BME280;5522;42.696;23.494;2023-10-09T10:01:13;53795.50;;;-139.68;20.88
10940;BME280;5522;42.696;23.494;2023-10-09T10:03:56;53827.69;;;-139.68;20.65
10940;BME280;5522;42.696;23.494;2023-10-09T10:06:25;53817.63;;;-139.68;19.75
10940;BME280;5522;42.696;23.494;2023-10-09T10:08:54;53851.81;;;-139.68;20.35
10940;BME280;5522;42.696;23.494;2023-10-09T10:11:44;53853.81;;;-139.68;19.66
10940;BME280;5522;42.696;23.494;2023-10-09T10:14:11;53859.84;;;-139.68;19.05
10940;BME280;5522;42.696;23.494;2023-10-09T10:17:04;53811.59;;;-139.68;19.09
10940;BME280;5522;42.696;23.494;2023-10-09T10:20:06;53831.69;;;-139.68;19.25
10940;BME280;5522;42.696;23.494;2023-10-09T10:22:51;53823.66;;;-139.68;19.28
10940;BME280;5522;42.696;23.494;2023-10-09T10:25:32;53815.63;;;-139.68;19.94
10940;BME280;5522;42.696;23.494;2023-10-09T10:28:18;53815.63;;;-139.68;19.89
10940;BME280;5522;42.696;23.494;2023-10-09T10:31:01;53861.84;;;-139.68;19.87
10940;BME280;5522;42.696;23.494;2023-10-09T10:34:05;53871.91;;;-139.68;19.77
10940;BME280;5522;42.696;23.494;2023-10-09T10:36:37;53863.88;;;-139.68;19.76
10940;BME280;5522;42.696;23.494;2023-10-09T10:39:09;53837.72;;;-139.68;20.10
10940;BME280;5522;42.696;23.494;2023-10-09T10:41:37;53861.84;;;-139.68;20.04
10940;BME280;5522;42.696;23.494;2023-10-09T10:44:24;53849.78;;;-139.68;20.21
10940;BME280;5522;42.696;23.494;2023-10-09T10:47:11;53865.88;;;-139.68;20.86
10940;BME280;5522;42.696;23.494;2023-10-09T10:49:53;53837.72;;;-139.68;20.84
10940;BME280;5522;42.696;23.494;2023-10-09T10:52:26;53875.94;;;-139.68;22.67
10940;BME280;5522;42.696;23.494;2023-10-09T10:55:11;53821.66;;;-139.68;23.57
10940;BME280;5522;42.696;23.494;2023-10-09T10:57:53;53843.75;;;-139.68;23.12
10940;BME280;5522;42.696;23.494;2023-10-09T11:00:21;53819.63;;;-139.68;23.50
10940;BME280;5522;42.696;23.494;2023-10-09T11:03:06;53847.78;;;-139.68;23.02
10940;BME280;5522;42.696;23.494;2023-10-09T11:05:45;53805.56;;;-139.68;24.76
10940;BME280;5522;42.696;23.494;2023-10-09T11:08:23;53865.88;;;-139.68;24.07
10940;BME280;5522;42.696;23.494;2023-10-09T11:10:52;53815.63;;;-139.68;24.23
10940;BME280;5522;42.696;23.494;2023-10-09T11:13:24;53831.69;;;-139.68;24.42
10940;BME280;5522;42.696;23.494;2023-10-09T11:15:56;53831.69;;;-139.68;24.13
10940;BME280;5522;42.696;23.494;2023-10-09T11:18:41;53859.84;;;-139.68;24.09
10940;BME280;5522;42.696;23.494;2023-10-09T11:21:13;53807.56;;;-139.68;24.22
10940;BME280;5522;42.696;23.494;2023-10-09T11:23:58;53831.69;;;-139.68;23.46
10940;BME280;5522;42.696;23.494;2023-10-09T11:26:46;53837.72;;;-139.68;24.63
10940;BME280;5522;42.696;23.494;2023-10-09T11:29:19;53827.69;;;-139.68;25.29
10940;BME280;5522;42.696;23.494;2023-10-09T11:32:01;53867.88;;;-139.68;24.70
10940;BME280;5522;42.696;23.494;2023-10-09T11:34:27;53859.84;;;-139.68;24.16
10940;BME280;5522;42.696;23.494;2023-10-09T11:36:59;53833.72;;;-139.68;24.69
10940;BME280;5522;42.696;23.494;2023-10-09T11:39:29;53831.69;;;-139.68;24.58
10940;BME280;5522;42.696;23.494;2023-10-09T11:42:06;53807.56;;;-139.68;24.50
10940;BME280;5522;42.696;23.494;2023-10-09T11:44:37;53839.75;;;-139.68;25.33
10940;BME280;5522;42.696;23.494;2023-10-09T11:47:05;53827.69;;;-139.68;25.64
10940;BME280;5522;42.696;23.494;2023-10-09T11:49:50;53817.63;;;-139.68;25.85
10940;BME280;5522;42.696;23.494;2023-10-09T11:52:29;53829.69;;;-139.68;26.27
10940;BME280;5522;42.696;23.494;2023-10-09T11:55:03;53819.63;;;-139.68;26.03
10940;BME280;5522;42.696;23.494;2023-10-09T11:57:33;53799.53;;;-139.68;25.66
10940;BME280;5522;42.696;23.494;2023-10-09T12:00:01;53857.84;;;-139.68;25.24
10940;BME280;5522;42.696;23.494;2023-10-09T12:02:36;53831.69;;;-139.68;25.56
10940;BME280;5522;42.696;23.494;2023-10-09T12:05:09;53795.50;;;-139.68;25.56
10940;BME280;5522;42.696;23.494;2023-10-09T12:07:43;53835.72;;;-139.68;26.17
10940;BME280;5522;42.696;23.494;2023-10-09T12:10:12;53807.56;;;-139.68;26.70
10940;BME280;5522;42.696;23.494;2023-10-09T12:12:50;53819.63;;;-139.68;26.30
10940;BME280;5522;42.696;23.494;2023-10-09T12:15:17;53827.69;;;-139.68;26.56
10940;BME280;5522;42.696;23.494;2023-10-09T12:17:44;53867.88;;;-139.68;26.86
10940;BME280;5522;42.696;23.494;2023-10-09T12:20:13;53821.66;;;-139.68;25.74
10940;BME280;5522;42.696;23.494;2023-10-09T12:22:57;53847.78;;;-139.68;25.96
10940;BME280;5522;42.696;23.494;2023-10-09T12:25:26;53837.72;;;-139.68;25.62
10940;BME280;5522;42.696;23.494;2023-10-09T12:27:56;53809.59;;;-139.68;26.24
10940;BME280;5522;42.696;23.494;2023-10-09T12:30:23;53781.44;;;-139.68;26.46
10940;BME280;5522;42.696;23.494;2023-10-09T12:32:53;53821.66;;;-139.68;26.14
10940;BME280;5522;42.696;23.494;2023-10-09T12:35:20;53797.53;;;-139.68;26.19
10940;BME280;5522;42.696;23.494;2023-10-09T12:37:50;53845.78;;;-139.68;25.52
10940;BME280;5522;42.696;23.494;2023-10-09T12:40:17;53807.56;;;-139.68;26.17
10940;BME280;5522;42.696;23.494;2023-10-09T12:42:51;53815.63;;;-139.68;26.57
10940;BME280;5522;42.696;23.494;2023-10-09T12:45:19;53807.56;;;-139.68;26.07
10940;BME280;5522;42.696;23.494;2023-10-09T12:47:52;53815.63;;;-139.68;26.81
10940;BME280;5522;42.696;23.494;2023-10-09T12:50:19;53815.63;;;-139.68;26.30
10940;BME280;5522;42.696;23.494;2023-10-09T12:52:54;53817.63;;;-139.68;26.73
10940;BME280;5522;42.696;23.494;2023-10-09T12:55:21;53877.94;;;-139.68;27.32
10940;BME280;5522;42.696;23.494;2023-10-09T12:57:59;53835.72;;;-139.68;26.30
10940;BME280;5522;42.696;23.494;2023-10-09T13:00:29;53817.63;;;-139.68;26.01
10940;BME280;5522;42.696;23.494;2023-10-09T13:02:58;53815.63;;;-139.68;25.33
10940;BME280;5522;42.696;23.494;2023-10-09T13:05:26;53811.59;;;-139.68;26.23
10940;BME280;5522;42.696;23.494;2023-10-09T13:07:53;53825.66;;;-139.68;26.14
10940;BME280;5522;42.696;23.494;2023-10-09T13:10:22;53823.66;;;-139.68;26.26
10940;BME280;5522;42.696;23.494;2023-10-09T13:12:49;53829.69;;;-139.68;26.16
10940;BME280;5522;42.696;23.494;2023-10-09T13:15:22;53819.63;;;-139.68;25.80
10940;BME280;5522;42.696;23.494;2023-10-09T13:17:48;53789.47;;;-139.68;26.34
10940;BME280;5522;42.696;23.494;2023-10-09T13:20:18;53795.50;;;-139.68;26.21
10940;BME280;5522;42.696;23.494;2023-10-09T13:22:47;53823.66;;;-139.68;26.96